Terminal Aerodrome Forecast
Issued by NWS

Home | Current Version | Previous Version | Text Only | Print | Product List | Glossary On
Versions: 1 2 3 4 5 6 7 8 9 10 11 12 13 14
900
FTUS43 KICT 241126
TAFCNU
TAF
KCNU 241126Z 2412/2512 17012KT P6SM VCSH BKN100 BKN200
     FM241500 20012G20KT P6SM FEW050 BKN100 BKN200
     FM241800 20017G24KT P6SM SCT050
     FM250100 18010KT P6SM SCT050
     FM250900 20006KT P6SM VCTS BKN050CB=

USA.gov is the U.S. government's official web portal to all federal, state and local government web resources and services.